Time;durP1;ratioP1;P1;durP2;ratioP2;P2;SDS_P1;SDS_P2;PMS_P1;PMS_P2;Temp;Humidity;BMP_temperature;BMP_pressure;BME280_temperature;BME280_humidity;BME280_pressure;Samples;Min_cycle;Max_cycle;Signal;HPM_P1;HPM_P2
2023/12/24 00:02:44;;;;;;;53.15;49.42;;;;;;;7.98;100.00;100190.38;10459159;28;20531;-73
2023/12/24 00:07:45;;;;;;;55.33;51.53;;;;;;;8.01;100.00;100200.84;10460429;28;20037;-73
2023/12/24 00:12:45;;;;;;;55.70;51.88;;;;;;;8.04;100.00;100192.09;10464452;28;20049;-73
2023/12/24 00:17:46;;;;;;;57.35;53.40;;;;;;;8.04;100.00;100165.56;10467382;28;20037;-73
2023/12/24 00:23:03;;;;;;;54.50;51.10;;;;;;;8.03;100.00;100182.25;10467323;28;20053;-74
2023/12/24 00:28:04;;;;;;;55.28;51.15;;;;;;;7.99;100.00;100187.41;10466654;28;20045;-74
2023/12/24 00:33:04;;;;;;;53.90;50.25;;;;;;;8.04;100.00;100182.00;10474924;28;20049;-74
2023/12/24 00:38:05;;;;;;;54.53;51.20;;;;;;;8.04;100.00;100173.78;10466408;28;20052;-74
2023/12/24 00:43:05;;;;;;;56.40;52.42;;;;;;;8.07;100.00;100175.16;10464602;28;20041;-73
2023/12/24 00:48:06;;;;;;;59.20;54.88;;;;;;;8.02;100.00;100166.88;10445922;28;20068;-73
2023/12/24 00:53:07;;;;;;;56.00;52.38;;;;;;;8.14;100.00;100172.22;10445190;28;20041;-72
2023/12/24 00:58:07;;;;;;;58.72;54.25;;;;;;;8.11;100.00;100179.06;10460389;28;20394;-75
2023/12/24 01:03:08;;;;;;;55.55;51.70;;;;;;;8.09;100.00;100159.28;10461715;28;20041;-73
2023/12/24 01:08:09;;;;;;;55.38;51.50;;;;;;;8.09;100.00;100164.78;10460433;28;20048;-73
2023/12/24 01:13:09;;;;;;;54.05;50.60;;;;;;;8.06;100.00;100157.03;10455002;28;20036;-76
2023/12/24 01:18:10;;;;;;;55.25;51.67;;;;;;;8.00;100.00;100144.34;10463767;28;20041;-73
2023/12/24 01:23:10;;;;;;;55.30;51.75;;;;;;;8.01;100.00;100130.41;10465217;28;20080;-74
2023/12/24 01:28:11;;;;;;;57.58;53.67;;;;;;;7.95;100.00;100105.94;10479871;28;20044;-72
2023/12/24 01:33:11;;;;;;;55.53;52.28;;;;;;;8.05;100.00;100130.72;10466114;28;20033;-74
2023/12/24 01:38:12;;;;;;;55.13;51.28;;;;;;;7.74;100.00;100081.03;10463335;28;20041;-74
2023/12/24 01:43:12;;;;;;;54.60;51.03;;;;;;;8.01;100.00;100135.06;10460692;28;20075;-74
2023/12/24 01:48:16;;;;;;;54.80;51.35;;;;;;;7.94;100.00;100104.25;10463577;28;20396;-74
2023/12/24 01:53:16;;;;;;;53.83;50.10;;;;;;;8.00;100.00;100120.53;10461285;28;20049;-73
2023/12/24 01:58:17;;;;;;;55.00;51.72;;;;;;;8.03;100.00;100114.53;10479062;28;20052;-75
2023/12/24 02:03:17;;;;;;;55.42;51.75;;;;;;;8.03;100.00;100106.31;10463542;28;20037;-74
2023/12/24 02:08:21;;;;;;;52.63;49.78;;;;;;;7.77;100.00;100063.25;10460912;28;20033;-75
2023/12/24 02:13:22;;;;;;;55.05;51.45;;;;;;;7.99;100.00;100087.91;10461371;28;20095;-75
2023/12/24 02:18:23;;;;;;;55.58;51.97;;;;;;;8.00;100.00;100084.91;10477503;28;20044;-74
2023/12/24 02:23:23;;;;;;;52.33;49.28;;;;;;;8.07;100.00;100087.44;10460724;28;20041;-75
2023/12/24 02:28:24;;;;;;;51.42;48.60;;;;;;;8.06;100.00;100072.06;10461846;28;20126;-73
2023/12/24 02:33:25;;;;;;;50.83;47.97;;;;;;;7.97;100.00;100059.91;10468618;28;20044;-74
2023/12/24 02:38:25;;;;;;;50.90;48.03;;;;;;;8.05;100.00;100065.75;10443114;28;20033;-74
2023/12/24 02:43:26;;;;;;;51.97;48.83;;;;;;;8.08;100.00;100050.69;10459302;28;20049;-74
2023/12/24 02:48:26;;;;;;;52.13;49.30;;;;;;;8.13;100.00;100048.03;10427270;28;20053;-74
2023/12/24 02:53:27;;;;;;;49.35;46.85;;;;;;;8.07;100.00;100036.19;10425451;28;20058;-74
2023/12/24 02:58:28;;;;;;;51.53;49.08;;;;;;;8.14;100.00;100025.00;10426508;28;20045;-73
2023/12/24 03:03:28;;;;;;;50.92;48.00;;;;;;;8.06;100.00;100011.75;10435883;28;20041;-75
2023/12/24 03:08:28;;;;;;;50.95;48.22;;;;;;;8.14;100.00;100013.22;10454362;28;20045;-74
2023/12/24 03:13:29;;;;;;;50.85;47.97;;;;;;;8.17;100.00;100018.19;10455683;28;20056;-74
2023/12/24 03:18:29;;;;;;;52.55;49.72;;;;;;;8.21;100.00;100014.66;10457028;28;20543;-74
2023/12/24 03:23:30;;;;;;;52.33;49.15;;;;;;;8.21;100.00;99998.22;10440893;28;20497;-73
2023/12/24 03:28:31;;;;;;;53.50;49.92;;;;;;;8.23;100.00;100008.94;10442159;28;20045;-71
2023/12/24 03:33:31;;;;;;;51.15;48.45;;;;;;;8.25;100.00;99999.34;10459011;28;20045;-75
2023/12/24 03:38:31;;;;;;;50.20;47.47;;;;;;;8.28;100.00;99993.31;10458813;28;20040;-76
2023/12/24 03:43:32;;;;;;;50.42;47.78;;;;;;;8.20;100.00;99969.13;10431927;28;20048;-75
2023/12/24 03:48:33;;;;;;;49.10;46.70;;;;;;;8.22;100.00;99972.44;10423171;28;20148;-74
2023/12/24 03:53:34;;;;;;;49.58;47.08;;;;;;;8.30;100.00;99973.88;10412920;28;20045;-74
2023/12/24 03:58:35;;;;;;;50.10;47.60;;;;;;;8.28;100.00;99965.09;10431263;28;20056;-75
2023/12/24 04:03:35;;;;;;;48.17;45.83;;;;;;;8.33;100.00;99950.59;10439520;28;20045;-74
2023/12/24 04:08:36;;;;;;;47.85;45.53;;;;;;;8.34;100.00;99975.00;10457716;28;20484;-75
2023/12/24 04:13:36;;;;;;;49.63;47.28;;;;;;;8.31;100.00;99958.25;10446822;28;20417;-74
2023/12/24 04:18:37;;;;;;;47.53;45.30;;;;;;;8.36;100.00;99963.78;10425505;28;20547;-76
2023/12/24 04:23:37;;;;;;;47.20;45.10;;;;;;;8.37;100.00;99951.72;10406694;28;20073;-69
2023/12/24 04:28:38;;;;;;;46.33;44.10;;;;;;;8.36;100.00;99939.09;10421594;28;20053;-74
2023/12/24 04:33:38;;;;;;;48.13;45.45;;;;;;;8.36;100.00;99945.41;10425758;28;20037;-74
2023/12/24 04:38:39;;;;;;;48.15;45.90;;;;;;;8.27;100.00;99911.34;10454995;28;20076;-74
2023/12/24 04:43:39;;;;;;;48.55;46.25;;;;;;;8.40;100.00;99934.75;10432914;28;20041;-74
2023/12/24 04:48:40;;;;;;;49.28;46.88;;;;;;;8.39;100.00;99922.09;10406395;28;20044;-75
2023/12/24 04:53:40;;;;;;;48.47;46.03;;;;;;;8.35;100.00;99913.59;10405747;28;20037;-74
2023/12/24 04:58:41;;;;;;;46.45;44.38;;;;;;;8.40;100.00;99907.31;10392276;28;20100;-74
2023/12/24 05:03:41;;;;;;;48.03;45.78;;;;;;;8.29;100.00;99890.78;10428310;28;20063;-75
2023/12/24 05:08:42;;;;;;;47.22;45.03;;;;;;;8.46;100.00;99928.25;10431443;28;20053;-75
2023/12/24 05:13:42;;;;;;;46.10;44.00;;;;;;;8.41;100.00;99914.47;10431842;28;20056;-74
2023/12/24 05:18:43;;;;;;;47.20;45.00;;;;;;;8.42;100.00;99905.16;10432673;28;20037;-75
2023/12/24 05:23:43;;;;;;;47.35;45.25;;;;;;;8.47;100.00;99916.16;10438023;28;20033;-74
2023/12/24 05:28:44;;;;;;;49.17;47.03;;;;;;;8.49;100.00;99905.75;10443559;28;20058;-74
2023/12/24 05:33:44;;;;;;;46.97;44.78;;;;;;;8.52;100.00;99907.97;10462618;28;20044;-74
2023/12/24 05:38:44;;;;;;;47.42;45.08;;;;;;;8.55;100.00;99910.19;10463299;28;20044;-74
2023/12/24 05:43:45;;;;;;;46.58;44.47;;;;;;;8.53;100.00;99912.38;10461600;28;20041;-76
2023/12/24 05:48:45;;;;;;;46.25;44.05;;;;;;;8.59;100.00;99900.34;10438560;28;20041;-74
2023/12/24 05:53:46;;;;;;;46.70;44.45;;;;;;;8.64;100.00;99900.38;10424674;28;20087;-74
2023/12/24 05:58:46;;;;;;;46.63;44.55;;;;;;;8.65;100.00;99896.53;10415807;28;20049;-73
2023/12/24 06:03:47;;;;;;;47.85;45.65;;;;;;;8.64;100.00;99878.44;10452562;28;20034;-75
2023/12/24 06:08:47;;;;;;;48.55;46.15;;;;;;;8.74;100.00;99874.88;10425488;28;20048;-75
2023/12/24 06:13:48;;;;;;;47.05;44.72;;;;;;;8.77;100.00;99881.78;10429142;28;20053;-73
2023/12/24 06:18:48;;;;;;;46.67;44.15;;;;;;;8.79;100.00;99865.88;10428715;28;20042;-75
2023/12/24 06:23:50;;;;;;;45.38;43.17;;;;;;;8.84;100.00;99871.38;10428199;28;20041;-73
2023/12/24 06:28:50;;;;;;;46.00;43.90;;;;;;;8.90;100.00;99875.78;10427489;28;20069;-73
2023/12/24 06:33:51;;;;;;;46.35;43.97;;;;;;;8.81;100.00;99852.72;10417321;28;20472;-74
2023/12/24 06:38:52;;;;;;;46.65;44.25;;;;;;;8.94;100.00;99868.69;10426472;28;20030;-74
2023/12/24 06:43:52;;;;;;;46.92;44.20;;;;;;;8.93;100.00;99836.84;10427526;28;20445;-74
2023/12/24 06:48:52;;;;;;;48.08;44.25;;;;;;;8.96;100.00;99832.72;10414135;28;20444;-73
2023/12/24 06:53:53;;;;;;;49.45;46.40;;;;;;;9.00;100.00;99839.34;10428799;28;20042;-73
2023/12/24 06:58:53;;;;;;;53.47;50.13;;;;;;;9.09;100.00;99852.28;10427799;28;20045;-75
2023/12/24 07:03:54;;;;;;;54.42;50.78;;;;;;;9.15;100.00;99853.09;10433292;28;20037;-74
2023/12/24 07:08:54;;;;;;;53.50;50.22;;;;;;;9.18;100.00;99849.81;10450926;28;20037;-74
2023/12/24 07:13:55;;;;;;;54.65;50.45;;;;;;;9.18;100.00;99830.59;10459735;28;20033;-74
2023/12/24 07:18:57;;;;;;;55.63;51.20;;;;;;;9.18;100.00;99824.28;10458386;28;20587;-73
2023/12/24 07:23:57;;;;;;;58.85;54.20;;;;;;;9.20;100.00;99822.06;10455126;28;20038;-73
2023/12/24 07:28:58;;;;;;;54.70;50.67;;;;;;;9.24;100.00;99832.28;10411237;28;20401;-72
2023/12/24 07:33:58;;;;;;;55.40;51.22;;;;;;;9.06;100.00;99813.53;10411149;28;20385;-74
2023/12/24 07:38:59;;;;;;;55.15;50.88;;;;;;;9.25;100.00;99846.81;10409340;28;20046;-70
2023/12/24 07:43:59;;;;;;;56.92;52.97;;;;;;;9.22;100.00;99823.47;10421558;28;20045;-75
2023/12/24 07:49:00;;;;;;;58.95;54.42;;;;;;;9.31;100.00;99840.25;10411685;28;20037;-72
2023/12/24 07:54:03;;;;;;;56.45;52.35;;;;;;;9.23;100.00;99821.53;10426024;28;20078;-72
2023/12/24 07:59:03;;;;;;;55.33;51.60;;;;;;;9.26;100.00;99810.00;10427304;28;20050;-75
2023/12/24 08:04:04;;;;;;;62.45;56.33;;;;;;;9.29;100.00;99809.47;10405394;28;20060;-73
2023/12/24 08:09:04;;;;;;;61.03;56.55;;;;;;;9.41;100.00;99829.28;10399087;28;20490;-74
2023/12/24 08:14:05;;;;;;;59.17;55.03;;;;;;;9.41;100.00;99817.47;10423985;28;20041;-73
2023/12/24 08:19:05;;;;;;;60.25;55.67;;;;;;;9.46;100.00;99828.44;10424838;28;20048;-73
2023/12/24 08:24:07;;;;;;;62.33;57.65;;;;;;;9.40;100.00;99794.66;10407312;28;20041;-72
2023/12/24 08:29:08;;;;;;;60.20;56.10;;;;;;;9.55;100.00;99798.50;10413060;28;20140;-73
2023/12/24 08:34:08;;;;;;;59.50;55.40;;;;;;;9.54;100.00;99794.94;10439565;28;20590;-73
2023/12/24 08:39:09;;;;;;;60.17;55.92;;;;;;;9.58;100.00;99800.72;10431520;28;20041;-71
2023/12/24 08:44:09;;;;;;;62.45;57.50;;;;;;;9.55;100.00;99795.75;10415831;28;20056;-72
2023/12/24 08:49:10;;;;;;;61.13;56.50;;;;;;;9.66;100.00;99803.75;10432046;28;20044;-73
2023/12/24 08:54:10;;;;;;;62.25;57.45;;;;;;;9.69;100.00;99796.88;10432262;28;20125;-73
2023/12/24 08:59:11;;;;;;;61.05;56.83;;;;;;;9.71;100.00;99794.66;10417467;28;20041;-73
2023/12/24 09:04:11;;;;;;;60.63;56.08;;;;;;;9.77;100.00;99810.06;10410141;28;20034;-74
2023/12/24 09:09:12;;;;;;;60.30;55.63;;;;;;;9.80;100.00;99795.78;10431947;28;20041;-73
2023/12/24 09:14:13;;;;;;;58.92;54.97;;;;;;;9.81;100.00;99810.34;10431519;28;20037;-73
2023/12/24 09:19:13;;;;;;;64.22;59.53;;;;;;;9.85;100.00;99822.44;10429554;28;20068;-73
2023/12/24 09:24:14;;;;;;;62.33;58.05;;;;;;;9.84;100.00;99809.81;10432889;28;20045;-73
2023/12/24 09:29:19;;;;;;;61.97;57.45;;;;;;;9.88;100.00;99811.72;10431876;28;20033;-73
2023/12/24 09:34:20;;;;;;;62.88;58.47;;;;;;;9.89;100.00;99802.34;10415451;28;20046;-72
2023/12/24 09:39:20;;;;;;;64.22;60.00;;;;;;;9.92;100.00;99806.47;10408656;28;20048;-74
2023/12/24 09:44:22;;;;;;;64.80;60.30;;;;;;;9.80;100.00;99760.03;10427057;28;20044;-74
2023/12/24 09:49:22;;;;;;;65.22;60.45;;;;;;;9.94;100.00;99798.78;10429588;28;20056;-74
2023/12/24 09:54:23;;;;;;;67.70;62.88;;;;;;;9.96;100.00;99780.06;10430539;28;20048;-73
2023/12/24 09:59:24;;;;;;;67.85;62.78;;;;;;;9.70;100.00;99754.56;10430364;28;20053;-73
2023/12/24 10:04:24;;;;;;;69.20;63.78;;;;;;;9.99;100.00;99786.97;10428223;28;20080;-75
2023/12/24 10:09:47;;;;;;;67.03;62.30;;;;;;;10.02;100.00;99773.47;10430933;28;20037;-75
2023/12/24 10:14:58;;;;;;;66.30;61.78;;;;;;;9.99;100.00;99756.72;10463074;28;20075;-74
2023/12/24 10:19:59;;;;;;;67.47;62.30;;;;;;;10.04;100.00;99770.44;10464166;28;20040;-76
2023/12/24 10:25:01;;;;;;;69.15;64.35;;;;;;;10.08;100.00;99761.34;10457768;28;20105;-74
2023/12/24 10:30:12;;;;;;;68.30;63.85;;;;;;;10.08;100.00;99752.28;10461021;28;20045;-75
2023/12/24 10:35:20;;;;;;;72.60;67.15;;;;;;;10.12;100.00;99756.13;10456195;28;20094;-74
2023/12/24 10:40:21;;;;;;;69.30;64.57;;;;;;;10.19;100.00;99764.94;10459022;28;20143;-74
2023/12/24 10:45:21;;;;;;;69.47;64.93;;;;;;;10.18;100.00;99760.50;10459746;28;20092;-74
2023/12/24 10:50:22;;;;;;;73.95;68.53;;;;;;;10.25;100.00;99761.06;10460032;28;20036;-73
2023/12/24 10:55:22;;;;;;;71.53;66.57;;;;;;;10.28;100.00;99755.00;10459801;28;20044;-74
2023/12/24 11:00:23;;;;;;;71.13;65.82;;;;;;;10.28;100.00;99732.97;10455848;28;20036;-74
2023/12/24 11:05:48;;;;;;;69.97;64.32;;;;;;;10.45;100.00;99737.34;10456861;28;20053;-74
2023/12/24 11:11:00;;;;;;;71.40;65.78;;;;;;;10.43;100.00;99739.56;10445604;28;20124;-73
2023/12/24 11:16:09;;;;;;;68.20;63.72;;;;;;;10.47;100.00;99740.66;10444135;28;20040;-74
2023/12/24 11:21:16;;;;;;;71.28;66.25;;;;;;;10.61;100.00;99747.19;10457585;28;20087;-73
2023/12/24 11:26:32;;;;;;;69.15;64.72;;;;;;;10.62;100.00;99726.81;10455964;28;20037;-74
2023/12/24 11:31:33;;;;;;;69.20;64.47;;;;;;;10.74;100.00;99756.75;10456266;28;20075;-74
2023/12/24 11:36:33;;;;;;;65.10;61.20;;;;;;;10.76;100.00;99737.22;10439350;28;20083;-74
2023/12/24 11:41:35;;;;;;;68.70;63.58;;;;;;;10.86;100.00;99734.41;10475360;28;20136;-75
2023/12/24 11:46:37;;;;;;;67.78;63.30;;;;;;;10.83;100.00;99732.22;10472812;28;20369;-75
2023/12/24 11:51:37;;;;;;;72.70;67.90;;;;;;;10.80;100.00;99717.09;10457167;28;20056;-75
2023/12/24 11:56:38;;;;;;;71.53;67.40;;;;;;;10.80;100.00;99721.78;10471559;28;20046;-74
2023/12/24 12:01:38;;;;;;;65.25;61.28;;;;;;;10.85;100.00;99705.22;10448481;28;20041;-75
2023/12/24 12:06:39;;;;;;;65.55;61.17;;;;;;;10.88;100.00;99707.41;10449056;28;20040;-74
2023/12/24 12:11:41;;;;;;;69.47;65.30;;;;;;;10.86;100.00;99679.34;10457846;28;20059;-72
2023/12/24 12:16:41;;;;;;;71.70;67.35;;;;;;;10.91;100.00;99723.34;10457306;28;20048;-75
2023/12/24 12:21:44;;;;;;;71.13;66.90;;;;;;;10.91;100.00;99684.81;10454916;28;20048;-74
2023/12/24 12:26:44;;;;;;;75.53;69.15;;;;;;;10.70;100.00;99664.84;10455000;28;20174;-74
2023/12/24 12:31:44;;;;;;;69.75;65.57;;;;;;;11.01;100.00;99679.22;10471192;28;20079;-75
2023/12/24 12:36:45;;;;;;;68.63;64.20;;;;;;;11.03;100.00;99693.53;10456710;28;20047;-74
2023/12/24 12:41:45;;;;;;;66.93;63.38;;;;;;;11.03;100.00;99684.44;10456674;28;20040;-76
2023/12/24 12:46:47;;;;;;;69.80;65.07;;;;;;;11.00;100.00;99679.53;10456612;28;20048;-76
2023/12/24 12:51:49;;;;;;;66.40;62.58;;;;;;;11.00;100.00;99652.81;10449874;28;20045;-74
2023/12/24 12:56:50;;;;;;;66.90;62.95;;;;;;;10.92;100.00;99642.41;10421590;28;20044;-75
2023/12/24 13:01:50;;;;;;;69.43;64.35;;;;;;;10.96;100.00;99626.94;10452429;28;20048;-76
2023/12/24 13:06:51;;;;;;;67.57;63.80;;;;;;;10.94;100.00;99634.69;10453219;28;20107;-75
2023/12/24 13:12:03;;;;;;;69.45;64.85;;;;;;;10.98;100.00;99619.22;10437330;28;20064;-75
2023/12/24 13:17:10;;;;;;;67.68;64.00;;;;;;;10.99;100.00;99615.34;10421318;28;20045;-76
2023/12/24 13:22:10;;;;;;;68.97;64.38;;;;;;;11.01;100.00;99604.88;10475251;28;20037;-77
2023/12/24 13:27:11;;;;;;;64.93;61.00;;;;;;;11.14;100.00;99606.16;10460368;28;20037;-75
2023/12/24 13:32:12;;;;;;;72.38;67.32;;;;;;;11.11;100.00;99607.53;10460198;28;20075;-75
2023/12/24 13:37:13;;;;;;;71.10;66.40;;;;;;;10.89;100.00;99577.72;10427201;28;20083;-79
2023/12/24 13:42:13;;;;;;;70.97;65.97;;;;;;;10.98;100.00;99588.13;10459837;28;20049;-79
2023/12/24 13:47:16;;;;;;;68.90;64.55;;;;;;;10.98;100.00;99597.19;10460583;28;20041;-78
2023/12/24 13:52:17;;;;;;;68.57;64.55;;;;;;;10.98;100.00;99608.22;10461344;28;20049;-77
2023/12/24 13:57:17;;;;;;;71.95;67.38;;;;;;;10.90;100.00;99611.56;10461293;28;20037;-80
2023/12/24 14:02:18;;;;;;;79.82;73.60;;;;;;;10.87;100.00;99601.97;10458596;28;20460;-82
2023/12/24 14:07:20;;;;;;;68.93;64.18;;;;;;;10.87;100.00;99595.63;10442996;28;20400;-83
2023/12/24 14:12:21;;;;;;;64.40;59.97;;;;;;;10.83;100.00;99589.03;10454876;28;20095;-79
2023/12/24 14:17:22;;;;;;;62.50;57.42;;;;;;;10.73;100.00;99562.44;10475745;28;20041;-75
2023/12/24 14:22:23;;;;;;;61.90;58.40;;;;;;;10.79;100.00;99582.47;10460924;28;20071;-78
2023/12/24 14:27:25;;;;;;;61.30;58.15;;;;;;;10.76;100.00;99580.31;10459638;28;20471;-73
2023/12/24 14:32:26;;;;;;;57.65;54.35;;;;;;;10.85;100.00;99579.41;10440024;28;20047;-76
2023/12/24 14:37:26;;;;;;;53.60;50.75;;;;;;;10.86;100.00;99594.00;10460762;28;20056;-75
2023/12/24 14:42:27;;;;;;;56.97;53.63;;;;;;;10.73;100.00;99567.09;10454519;28;20044;-74
2023/12/24 14:47:29;;;;;;;55.33;52.05;;;;;;;10.81;100.00;99575.59;10472954;28;20040;-76
2023/12/24 14:52:29;;;;;;;59.13;55.83;;;;;;;10.84;100.00;99557.66;10458140;28;20049;-77
2023/12/24 14:57:30;;;;;;;52.88;50.20;;;;;;;10.88;100.00;99542.22;10439893;28;20029;-78
2023/12/24 15:02:30;;;;;;;52.47;49.88;;;;;;;10.85;100.00;99526.25;10459801;28;20037;-76
2023/12/24 15:07:33;;;;;;;55.88;53.25;;;;;;;10.84;100.00;99527.38;10460416;28;20071;-75
2023/12/24 15:12:34;;;;;;;51.03;48.42;;;;;;;10.89;100.00;99519.06;10459828;28;20544;-77
2023/12/24 15:17:34;;;;;;;50.33;48.05;;;;;;;10.88;100.00;99539.44;10459366;28;20033;-79
2023/12/24 15:22:35;;;;;;;51.03;48.53;;;;;;;10.91;100.00;99547.13;10455883;28;20037;-79
2023/12/24 15:27:35;;;;;;;53.58;50.97;;;;;;;10.94;100.00;99532.78;10458790;28;20044;-80
2023/12/24 15:32:36;;;;;;;52.45;50.05;;;;;;;10.97;100.00;99545.97;10458047;28;20041;-81
2023/12/24 15:37:36;;;;;;;52.65;50.05;;;;;;;11.05;100.00;99552.78;10458713;28;20048;-80
2023/12/24 15:42:37;;;;;;;52.97;50.53;;;;;;;11.11;100.00;99555.19;10459127;28;20573;-75
2023/12/24 15:47:37;;;;;;;47.80;45.42;;;;;;;11.10;100.00;99570.09;10459404;28;21016;-77
2023/12/24 15:52:38;;;;;;;49.35;47.05;;;;;;;11.23;100.00;99614.59;10472834;28;20049;-79
2023/12/24 15:57:39;;;;;;;50.88;48.30;;;;;;;11.32;100.00;99588.88;10457176;28;20041;-79
2023/12/24 16:02:41;;;;;;;49.65;47.00;;;;;;;11.40;100.00;99626.00;10470790;28;20049;-78
2023/12/24 16:07:41;;;;;;;51.28;48.63;;;;;;;11.34;100.00;99565.72;10446064;28;20044;-79
2023/12/24 16:12:42;;;;;;;52.50;49.33;;;;;;;11.48;100.00;99595.06;10457817;28;20352;-80
2023/12/24 16:17:42;;;;;;;54.67;51.97;;;;;;;11.54;100.00;99575.72;10458082;28;20049;-79
2023/12/24 16:22:43;;;;;;;57.42;53.85;;;;;;;11.38;100.00;99578.63;10453009;28;20033;-83
2023/12/24 16:27:43;;;;;;;59.05;55.35;;;;;;;11.39;100.00;99580.28;10434624;28;20045;-77
2023/12/24 16:32:44;;;;;;;58.80;55.47;;;;;;;11.44;100.00;99588.47;10453304;28;20088;-77
2023/12/24 16:37:45;;;;;;;61.75;57.92;;;;;;;11.34;100.00;99554.72;10453703;28;20743;-78
2023/12/24 16:42:47;;;;;;;65.75;61.33;;;;;;;11.40;100.00;99578.34;10454878;28;20033;-79
2023/12/24 16:47:47;;;;;;;62.05;58.25;;;;;;;11.36;100.00;99586.38;10457022;28;20454;-81
2023/12/24 16:52:47;;;;;;;61.78;58.08;;;;;;;11.08;100.00;99525.50;10455485;28;20064;-81
2023/12/24 16:57:48;;;;;;;60.20;56.83;;;;;;;11.28;100.00;99556.69;10463036;28;20044;-80
2023/12/24 17:02:50;;;;;;;59.80;56.25;;;;;;;11.37;100.00;99565.97;10465864;28;20045;-80
2023/12/24 17:07:50;;;;;;;63.30;58.90;;;;;;;11.36;100.00;99558.81;10463254;28;20083;-80
2023/12/24 17:12:50;;;;;;;66.05;61.00;;;;;;;11.39;100.00;99563.75;10465615;28;20040;-79
2023/12/24 17:17:54;;;;;;;64.90;60.25;;;;;;;11.30;100.00;99537.94;10478798;28;20052;-78
2023/12/24 17:22:54;;;;;;;64.72;60.53;;;;;;;11.36;100.00;99542.28;10462916;28;20063;-79
2023/12/24 17:27:55;;;;;;;59.92;56.08;;;;;;;11.46;100.00;99558.69;10464086;28;20033;-79
2023/12/24 17:32:56;;;;;;;62.25;58.08;;;;;;;11.51;100.00;99568.84;10462142;28;20044;-78
2023/12/24 17:37:56;;;;;;;61.20;56.95;;;;;;;11.48;100.00;99577.72;10461170;28;20037;-78
2023/12/24 17:42:57;;;;;;;63.00;58.67;;;;;;;11.57;100.00;99594.41;10464445;28;20048;-78
2023/12/24 17:47:57;;;;;;;61.67;57.50;;;;;;;11.52;100.00;99596.13;10462687;28;20481;-79
2023/12/24 17:52:58;;;;;;;62.53;58.03;;;;;;;11.55;100.00;99593.88;10477977;28;20040;-78
2023/12/24 17:57:59;;;;;;;61.13;57.03;;;;;;;11.53;100.00;99580.41;10477848;28;20040;-78
2023/12/24 18:02:59;;;;;;;54.83;50.65;;;;;;;11.68;100.00;99618.84;10460270;28;20053;-80
2023/12/24 18:08:00;;;;;;;47.80;43.85;;;;;;;11.38;100.00;99556.59;10418251;28;20056;-78
2023/12/24 18:13:00;;;;;;;45.88;42.17;;;;;;;11.67;100.00;99619.13;10462259;28;20052;-78
2023/12/24 18:18:02;;;;;;;46.42;42.75;;;;;;;11.68;100.00;99604.25;10456525;28;20037;-77
2023/12/24 18:23:03;;;;;;;40.55;37.03;;;;;;;11.76;100.00;99622.91;10475500;28;20068;-78
2023/12/24 18:28:03;;;;;;;39.47;36.10;;;;;;;11.68;100.00;99627.09;10459029;28;20048;-77
2023/12/24 18:33:04;;;;;;;34.33;31.42;;;;;;;11.78;100.00;99615.16;10459110;28;20044;-78
2023/12/24 18:38:06;;;;;;;33.15;29.92;;;;;;;11.76;100.00;99609.13;10458762;28;20036;-78
2023/12/24 18:43:06;;;;;;;30.88;28.38;;;;;;;11.63;100.00;99613.38;10439491;28;20053;-79
2023/12/24 18:48:07;;;;;;;32.20;29.27;;;;;;;11.71;100.00;99631.22;10441324;28;20037;-77
2023/12/24 18:53:07;;;;;;;31.38;28.30;;;;;;;11.78;100.00;99642.72;10454094;28;20037;-78
2023/12/24 18:58:08;;;;;;;31.50;28.00;;;;;;;11.51;100.00;99622.06;10457657;28;20045;-78
2023/12/24 19:03:08;;;;;;;39.65;35.95;;;;;;;11.52;100.00;99658.69;10435233;28;20091;-78
2023/12/24 19:08:09;;;;;;;37.92;34.47;;;;;;;11.46;100.00;99662.63;10457211;28;20037;-79
2023/12/24 19:13:09;;;;;;;50.03;45.90;;;;;;;11.38;100.00;99643.94;10440611;28;20036;-77
2023/12/24 19:18:10;;;;;;;50.33;46.33;;;;;;;11.31;100.00;99656.13;10440185;28;20072;-78
2023/12/24 19:23:10;;;;;;;49.15;44.85;;;;;;;11.24;100.00;99663.06;10439456;28;20033;-80
2023/12/24 19:28:11;;;;;;;42.53;38.90;;;;;;;11.36;100.00;99669.03;10434894;28;20041;-78
2023/12/24 19:33:11;;;;;;;39.58;36.42;;;;;;;11.31;100.00;99658.06;10457143;28;20037;-79
2023/12/24 19:38:11;;;;;;;47.60;43.78;;;;;;;11.33;100.00;99686.16;10439794;28;20045;-78
2023/12/24 19:43:12;;;;;;;48.15;44.67;;;;;;;11.27;100.00;99692.81;10473674;28;20037;-78
2023/12/24 19:48:14;;;;;;;46.72;43.20;;;;;;;11.24;100.00;99707.16;10453940;28;20075;-80
2023/12/24 19:53:14;;;;;;;43.20;39.65;;;;;;;11.18;100.00;99711.06;10457063;28;20045;-78
2023/12/24 19:58:15;;;;;;;38.75;35.63;;;;;;;11.36;100.00;99735.16;10456916;28;20041;-78
2023/12/24 20:03:15;;;;;;;41.03;38.53;;;;;;;11.30;100.00;99758.34;10407620;28;20067;-79
2023/12/24 20:08:16;;;;;;;36.97;34.38;;;;;;;11.31;100.00;99760.84;10422119;28;20462;-80
2023/12/24 20:13:17;;;;;;;33.97;31.95;;;;;;;11.38;100.00;99748.66;10455216;28;20036;-79
2023/12/24 20:18:18;;;;;;;30.70;28.38;;;;;;;11.21;100.00;99751.81;10438786;28;20036;-82
2023/12/24 20:23:18;;;;;;;30.30;28.13;;;;;;;11.21;100.00;99757.34;10455883;28;20029;-78
2023/12/24 20:28:19;;;;;;;26.30;23.63;;;;;;;11.17;100.00;99770.84;10475552;28;20040;-78
2023/12/24 20:33:20;;;;;;;19.27;17.40;;;;;;;11.28;100.00;99775.16;10446965;28;20041;-80
2023/12/24 20:38:20;;;;;;;17.90;16.52;;;;;;;11.19;100.00;99776.91;10437928;28;20056;-78
2023/12/24 20:43:21;;;;;;;18.45;16.63;;;;;;;11.19;100.00;99787.09;10446340;28;20041;-77
2023/12/24 20:48:21;;;;;;;18.10;16.00;;;;;;;11.13;100.00;99783.53;10447245;28;20385;-78
2023/12/24 20:53:22;;;;;;;19.42;13.90;;;;;;;11.36;100.00;99812.31;10462121;28;20041;-80
2023/12/24 20:58:23;;;;;;;20.88;18.45;;;;;;;11.28;100.00;99804.66;10464442;28;20028;-81
2023/12/24 21:03:23;;;;;;;15.20;13.88;;;;;;;11.24;100.00;99792.56;10463082;28;20036;-77
2023/12/24 21:08:24;;;;;;;14.60;12.93;;;;;;;11.19;100.00;99811.88;10461771;28;20040;-79
2023/12/24 21:13:24;;;;;;;15.88;13.95;;;;;;;11.17;100.00;99825.94;10461482;28;20048;-78
2023/12/24 21:18:25;;;;;;;23.50;14.48;;;;;;;11.35;100.00;99816.19;10446179;28;20053;-81
2023/12/24 21:23:26;;;;;;;20.02;16.27;;;;;;;11.15;100.00;99828.16;10462398;28;20497;-78
2023/12/24 21:28:26;;;;;;;21.98;15.32;;;;;;;11.28;100.00;99832.22;10460814;28;20045;-81
2023/12/24 21:33:27;;;;;;;20.52;17.65;;;;;;;11.18;100.00;99837.78;10462503;28;20052;-74
2023/12/24 21:38:29;;;;;;;14.85;13.27;;;;;;;11.18;100.00;99859.81;10455363;28;20521;-78
2023/12/24 21:43:29;;;;;;;13.65;11.90;;;;;;;11.08;100.00;99867.03;10477922;28;20045;-78
2023/12/24 21:48:30;;;;;;;17.88;13.18;;;;;;;11.02;100.00;99879.19;10438962;28;20045;-79
2023/12/24 21:53:30;;;;;;;14.65;11.95;;;;;;;11.03;100.00;99883.56;10462641;28;20052;-78
2023/12/24 21:58:31;;;;;;;14.77;11.15;;;;;;;11.02;100.00;99884.69;10445942;28;20097;-80
2023/12/24 22:03:31;;;;;;;19.85;11.48;;;;;;;11.06;100.00;99865.69;10460313;28;20040;-78
2023/12/24 22:08:32;;;;;;;15.18;11.27;;;;;;;10.69;100.00;99833.88;10459711;28;20041;-79
2023/12/24 22:13:36;;;;;;;13.45;9.98;;;;;;;11.01;100.00;99880.28;10460004;28;20397;-81
2023/12/24 22:18:36;;;;;;;15.02;9.65;;;;;;;10.89;100.00;99847.56;10459803;28;20036;-81
2023/12/24 22:23:37;;;;;;;14.85;7.57;;;;;;;10.96;100.00;99871.22;10442765;28;20037;-78
2023/12/24 22:28:37;;;;;;;13.27;5.32;;;;;;;10.90;100.00;99842.88;10462365;28;20635;-77
2023/12/24 22:33:38;;;;;;;12.90;4.97;;;;;;;11.15;100.00;99857.66;10460266;28;20079;-78
2023/12/24 22:38:38;;;;;;;14.88;4.95;;;;;;;11.14;100.00;99855.97;10422459;28;20117;-79